Time;durP1;ratioP1;P1;durP2;ratioP2;P2;SDS_P1;SDS_P2;PMS_P1;PMS_P2;Temp;Humidity;BMP_temperature;BMP_pressure;BME280_temperature;BME280_humidity;BME280_pressure;Samples;Min_cycle;Max_cycle;Signal;HPM_P1;HPM_P2
2022/06/07 00:03:36;;;;;;;3.60;2.10;;;;;;;19.87;55.17;97848.81;8319903;28;20235;-74
2022/06/07 00:07:40;;;;;;;3.40;2.40;;;;;;;19.83;55.55;97839.53;8316394;28;20266;-75
2022/06/07 00:11:43;;;;;;;3.97;2.40;;;;;;;19.80;55.10;97841.59;8316077;28;20239;-75
2022/06/07 00:15:48;;;;;;;3.53;2.20;;;;;;;19.79;55.52;97839.94;8316119;28;20238;-75
2022/06/07 00:19:50;;;;;;;3.87;2.30;;;;;;;19.69;55.80;97845.94;8316093;28;20428;-75
2022/06/07 00:23:53;;;;;;;4.97;2.20;;;;;;;19.67;55.71;97847.03;8316146;28;20238;-75
2022/06/07 00:27:56;;;;;;;5.33;2.37;;;;;;;19.69;55.94;97850.38;8315867;28;20236;-75
2022/06/07 00:32:01;;;;;;;3.63;2.20;;;;;;;19.59;56.30;97845.03;8315593;28;20539;-76
2022/06/07 00:36:04;;;;;;;4.27;2.00;;;;;;;19.61;55.88;97845.75;8315564;28;20240;-76
2022/06/07 00:40:08;;;;;;;7.47;2.13;;;;;;;19.60;55.77;97838.81;8315285;28;20562;-75
2022/06/07 00:44:24;;;;;;;2.67;1.80;;;;;;;19.64;56.34;97832.34;8338602;28;20549;-75
2022/06/07 00:48:28;;;;;;;4.13;2.20;;;;;;;19.61;56.11;97821.25;8347630;28;20234;-75
2022/06/07 00:52:33;;;;;;;3.50;1.87;;;;;;;19.60;55.93;97815.19;8347933;28;20269;-75
2022/06/07 00:56:36;;;;;;;3.13;2.17;;;;;;;19.56;55.98;97820.81;8347886;28;20417;-74
2022/06/07 01:00:38;;;;;;;4.43;2.00;;;;;;;19.60;56.05;97820.44;8347798;28;20230;-74
2022/06/07 01:04:43;;;;;;;3.70;2.37;;;;;;;19.58;56.47;97827.59;8347656;28;20455;-74
2022/06/07 01:13:02;;;;;;;5.03;2.13;;;;;;;19.52;56.67;97823.69;8325162;28;20545;-75
2022/06/07 01:17:05;;;;;;;4.37;2.10;;;;;;;19.47;56.92;97817.16;8347451;28;20238;-74
2022/06/07 01:21:18;;;;;;;4.90;2.10;;;;;;;19.47;56.62;97820.63;8347299;28;20232;-74
2022/06/07 01:25:21;;;;;;;5.20;2.00;;;;;;;19.43;56.99;97827.09;8352289;28;20240;-75
2022/06/07 01:29:24;;;;;;;2.50;1.93;;;;;;;19.49;56.84;97833.63;8353578;28;20506;-74
2022/06/07 01:33:27;;;;;;;3.93;1.93;;;;;;;19.49;56.73;97829.19;8354098;28;20586;-74
2022/06/07 01:37:32;;;;;;;3.67;2.03;;;;;;;19.48;56.88;97831.97;8353907;28;20231;-75
2022/06/07 01:46:03;;;;;;;3.97;1.90;;;;;;;19.48;56.46;97838.06;8353597;28;20255;-74
2022/06/07 01:50:08;;;;;;;4.33;1.90;;;;;;;19.45;56.13;97840.91;8353375;28;20510;-75
2022/06/07 01:54:14;;;;;;;2.77;1.90;;;;;;;19.51;56.10;97836.94;8353357;28;20230;-74
2022/06/07 01:58:17;;;;;;;3.47;1.90;;;;;;;19.52;56.28;97836.84;8353203;28;20230;-74
2022/06/07 02:02:22;;;;;;;2.13;1.87;;;;;;;19.51;56.05;97831.69;8353084;28;20238;-75
2022/06/07 02:06:25;;;;;;;3.53;2.00;;;;;;;19.50;55.76;97825.63;8352613;28;20225;-74
2022/06/07 02:10:29;;;;;;;4.13;1.80;;;;;;;19.49;55.77;97818.69;8352678;28;20240;-74
2022/06/07 02:14:32;;;;;;;5.53;2.00;;;;;;;19.45;55.77;97824.34;8352675;28;20230;-75
2022/06/07 02:18:36;;;;;;;3.90;1.87;;;;;;;19.50;55.96;97825.63;8352565;28;20232;-74
2022/06/07 02:22:39;;;;;;;3.73;1.90;;;;;;;19.54;55.75;97834.09;8352352;28;20234;-75
2022/06/07 02:26:46;;;;;;;2.50;1.70;;;;;;;19.59;55.79;97820.56;8352382;28;20236;-75
2022/06/07 02:30:49;;;;;;;2.63;1.97;;;;;;;19.52;56.03;97815.81;8352207;28;20545;-75
2022/06/07 02:34:55;;;;;;;2.67;1.80;;;;;;;19.56;55.51;97812.94;8351997;28;20235;-76
2022/06/07 02:38:58;;;;;;;4.20;1.67;;;;;;;19.59;55.86;97817.94;8351937;28;20237;-75
2022/06/07 02:43:03;;;;;;;6.83;2.10;;;;;;;19.57;55.70;97807.53;8351637;28;20241;-76
2022/06/07 02:47:06;;;;;;;6.10;2.27;;;;;;;19.54;56.25;97813.06;8351705;28;20232;-75
2022/06/07 02:51:09;;;;;;;4.23;1.83;;;;;;;19.48;56.22;97808.34;8351495;28;20240;-75
2022/06/07 02:55:12;;;;;;;4.30;2.00;;;;;;;19.48;56.42;97811.78;8351491;28;20512;-74
2022/06/07 02:59:16;;;;;;;2.37;1.77;;;;;;;19.50;56.30;97806.41;8351292;28;20229;-75
2022/06/07 03:03:19;;;;;;;4.43;1.93;;;;;;;19.41;56.65;97807.19;8351188;28;20235;-75
2022/06/07 03:07:22;;;;;;;2.60;1.70;;;;;;;19.42;57.18;97798.31;8350593;28;20225;-73
2022/06/07 03:11:24;;;;;;;4.37;1.93;;;;;;;19.34;57.24;97796.34;8350704;28;20243;-74
2022/06/07 03:15:30;;;;;;;3.20;1.77;;;;;;;19.37;57.67;97803.97;8351010;28;20436;-74
2022/06/07 03:19:32;;;;;;;4.53;2.00;;;;;;;19.43;57.29;97808.69;8350802;28;20243;-74
2022/06/07 03:23:35;;;;;;;3.00;1.90;;;;;;;19.30;57.87;97810.69;8350654;28;20239;-74
2022/06/07 03:27:39;;;;;;;3.77;2.13;;;;;;;19.32;58.51;97817.50;8350569;28;20431;-74
2022/06/07 03:31:43;;;;;;;3.50;1.70;;;;;;;19.33;57.71;97808.63;8350309;28;20247;-75
2022/06/07 03:35:46;;;;;;;6.33;2.00;;;;;;;19.19;58.19;97808.97;8350241;28;20230;-75
2022/06/07 03:39:49;;;;;;;4.60;2.00;;;;;;;19.30;57.90;97811.50;8349945;28;20232;-75
2022/06/07 03:43:52;;;;;;;3.83;2.10;;;;;;;19.34;57.94;97814.72;8349744;28;20236;-75
2022/06/07 03:47:56;;;;;;;2.27;1.87;;;;;;;19.30;58.04;97813.31;8349110;28;20295;-75
2022/06/07 03:51:59;;;;;;;3.17;1.80;;;;;;;19.34;57.80;97817.34;8331832;28;20547;-76
2022/06/07 03:56:02;;;;;;;6.37;2.00;;;;;;;19.26;57.95;97820.59;8315954;28;20235;-75
2022/06/07 04:00:06;;;;;;;3.77;1.77;;;;;;;19.28;57.34;97825.72;8315969;28;20225;-75
2022/06/07 04:04:11;;;;;;;2.03;1.50;;;;;;;19.32;57.61;97819.25;8315661;28;20222;-75
2022/06/07 04:08:14;;;;;;;2.97;1.80;;;;;;;19.30;57.30;97824.63;8316004;28;20241;-74
2022/06/07 04:12:18;;;;;;;2.13;1.67;;;;;;;19.33;57.72;97818.31;8316007;28;20234;-76
2022/06/07 04:16:23;;;;;;;3.90;1.90;;;;;;;19.36;57.23;97814.59;8316040;28;20246;-76
2022/06/07 04:20:27;;;;;;;4.17;2.07;;;;;;;19.29;57.91;97815.09;8315674;28;20233;-75
2022/06/07 04:24:30;;;;;;;4.43;2.10;;;;;;;19.29;58.05;97815.09;8315694;28;20233;-76
2022/06/07 04:28:33;;;;;;;6.27;2.10;;;;;;;19.39;57.80;97812.53;8315758;28;20233;-75
2022/06/07 04:32:36;;;;;;;3.70;2.00;;;;;;;19.40;56.97;97810.75;8315045;28;20230;-76
2022/06/07 04:36:40;;;;;;;3.60;1.70;;;;;;;19.44;56.96;97809.53;8323330;28;20413;-75
2022/06/07 04:40:44;;;;;;;5.50;1.73;;;;;;;19.52;56.02;97812.38;8315214;28;20437;-75
2022/06/07 04:44:48;;;;;;;4.17;1.70;;;;;;;19.58;55.86;97811.03;8282832;28;20236;-83
2022/06/07 04:48:51;;;;;;;6.67;1.90;;;;;;;19.56;55.97;97816.41;8282679;28;20235;-75
2022/06/07 04:52:55;;;;;;;4.97;1.77;;;;;;;19.60;56.09;97825.69;8282426;28;20235;-75
2022/06/07 04:56:58;;;;;;;2.10;1.40;;;;;;;19.48;56.45;97822.28;8281967;28;20231;-75
2022/06/07 05:01:01;;;;;;;2.47;1.57;;;;;;;19.55;56.84;97827.84;8281995;28;20230;-75
2022/06/07 05:05:05;;;;;;;3.00;1.77;;;;;;;19.63;56.52;97830.69;8282312;28;20235;-75
2022/06/07 05:09:13;;;;;;;4.03;1.87;;;;;;;19.68;55.85;97825.03;8282206;28;20574;-75
2022/06/07 05:13:15;;;;;;;3.57;1.70;;;;;;;19.68;55.99;97828.50;8282049;28;20314;-75
2022/06/07 05:17:18;;;;;;;4.43;1.80;;;;;;;19.71;56.02;97832.69;8282009;28;20226;-75
2022/06/07 05:21:22;;;;;;;7.20;1.77;;;;;;;19.62;55.26;97828.19;8282027;28;20234;-74
2022/06/07 05:25:26;;;;;;;3.50;1.60;;;;;;;19.65;55.12;97834.03;8314228;28;20236;-75
2022/06/07 05:29:33;;;;;;;2.47;1.43;;;;;;;19.75;55.43;97838.53;8314503;28;20234;-75
2022/06/07 05:33:35;;;;;;;3.27;1.40;;;;;;;19.75;54.49;97849.06;8314429;28;20466;-75
2022/06/07 05:37:38;;;;;;;3.90;1.70;;;;;;;19.78;54.41;97854.88;8314305;28;20406;-75
2022/06/07 05:41:42;;;;;;;2.80;1.50;;;;;;;19.84;53.78;97854.38;8321776;28;20558;-75
2022/06/07 05:45:48;;;;;;;4.50;1.63;;;;;;;19.89;53.71;97853.97;8346971;28;20237;-75
2022/06/07 05:49:51;;;;;;;2.73;1.50;;;;;;;19.79;53.41;97856.53;8346981;28;20300;-75
2022/06/07 05:53:54;;;;;;;3.10;1.60;;;;;;;20.00;53.60;97856.50;8346642;28;20244;-75
2022/06/07 05:57:58;;;;;;;2.13;1.23;;;;;;;20.03;53.26;97861.53;8346718;28;20245;-75
2022/06/07 06:02:01;;;;;;;2.93;1.27;;;;;;;20.05;52.90;97856.97;8346622;28;20233;-75
2022/06/07 06:06:07;;;;;;;2.70;1.50;;;;;;;20.20;52.75;97861.88;8346648;28;20246;-75
2022/06/07 06:10:22;;;;;;;5.73;1.67;;;;;;;20.15;52.32;97866.72;8349292;28;20238;-76
2022/06/07 06:14:27;;;;;;;4.70;1.53;;;;;;;20.07;53.16;97870.00;8352381;28;20232;-75
2022/06/07 06:18:30;;;;;;;2.93;1.50;;;;;;;20.20;53.05;97870.63;8352654;28;20246;-76
2022/06/07 06:22:34;;;;;;;2.67;1.40;;;;;;;20.24;52.92;97868.56;8352272;28;20235;-75
2022/06/07 06:26:38;;;;;;;2.90;1.37;;;;;;;20.35;52.33;97864.97;8352317;28;20534;-75
2022/06/07 06:30:44;;;;;;;42.07;2.97;;;;;;;20.45;52.13;97864.06;8352110;28;20234;-74
2022/06/07 06:34:47;;;;;;;7.00;1.50;;;;;;;20.45;52.08;97861.44;8351994;28;20227;-73
2022/06/07 06:38:50;;;;;;;6.20;1.40;;;;;;;20.49;51.45;97860.19;8351847;28;20560;-74
2022/06/07 06:42:53;;;;;;;14.53;2.27;;;;;;;20.51;51.88;97860.06;8351434;28;20240;-76
2022/06/07 06:46:57;;;;;;;3.90;1.40;;;;;;;20.36;51.57;97869.28;8351746;28;20228;-73
2022/06/07 06:51:01;;;;;;;2.83;1.30;;;;;;;20.45;51.07;97869.31;8350369;28;20226;-74
2022/06/07 06:55:05;;;;;;;3.53;1.00;;;;;;;20.43;50.27;97879.16;8351412;28;20227;-74
2022/06/07 06:59:09;;;;;;;3.43;1.47;;;;;;;20.41;51.14;97877.59;8351431;28;20262;-75
2022/06/07 07:03:13;;;;;;;3.80;1.43;;;;;;;20.41;50.12;97867.06;8351412;28;20440;-75
2022/06/07 07:07:20;;;;;;;3.07;1.10;;;;;;;20.41;50.41;97867.94;8351033;28;20555;-74
2022/06/07 07:11:25;;;;;;;1.50;1.20;;;;;;;20.49;51.00;97869.91;8350677;28;20232;-74
2022/06/07 07:15:28;;;;;;;3.77;1.20;;;;;;;20.57;51.22;97882.38;8350931;28;20232;-74
2022/06/07 07:19:32;;;;;;;2.20;1.10;;;;;;;20.54;50.89;97875.56;8350669;28;20232;-75
2022/06/07 07:23:35;;;;;;;3.70;1.37;;;;;;;20.60;51.38;97875.09;8349665;28;20235;-74
2022/06/07 07:27:38;;;;;;;2.20;1.30;;;;;;;20.48;50.92;97876.94;8350569;28;20240;-74
2022/06/07 07:31:41;;;;;;;3.37;1.10;;;;;;;20.51;51.27;97866.16;8350232;28;20228;-74
2022/06/07 07:35:46;;;;;;;3.27;1.20;;;;;;;20.64;50.36;97875.66;8350202;28;20230;-74
2022/06/07 07:39:49;;;;;;;3.77;1.20;;;;;;;20.74;50.43;97879.16;8350055;28;20235;-74
2022/06/07 07:43:53;;;;;;;2.93;1.20;;;;;;;20.81;49.60;97871.53;8344639;28;20236;-74
2022/06/07 07:47:55;;;;;;;3.67;1.10;;;;;;;20.96;49.51;97866.72;8349821;28;20228;-75
2022/06/07 07:52:00;;;;;;;1.87;1.20;;;;;;;21.06;48.97;97875.47;8349576;28;20236;-75
2022/06/07 07:56:03;;;;;;;1.83;1.10;;;;;;;21.07;48.74;97866.59;8349568;28;20231;-75
2022/06/07 08:00:07;;;;;;;2.67;1.20;;;;;;;21.27;48.38;97870.09;8349398;28;20566;-74
2022/06/07 08:04:10;;;;;;;2.30;1.30;;;;;;;21.17;47.37;97872.72;8349307;28;20244;-74
2022/06/07 08:08:14;;;;;;;2.97;1.10;;;;;;;21.43;48.02;97867.72;8349107;28;20247;-73
2022/06/07 08:12:17;;;;;;;2.77;1.10;;;;;;;21.64;47.80;97867.59;8348870;28;20235;-74
2022/06/07 08:16:20;;;;;;;2.07;1.00;;;;;;;21.96;47.93;97865.63;8348806;28;20249;-74
2022/06/07 08:20:24;;;;;;;3.53;1.30;;;;;;;22.07;46.84;97873.38;8348439;28;20231;-74
2022/06/07 08:24:28;;;;;;;3.57;1.30;;;;;;;22.42;45.82;97874.53;8348717;28;20232;-74
2022/06/07 08:28:31;;;;;;;3.57;1.20;;;;;;;22.53;44.62;97871.72;8348643;28;20235;-74
2022/06/07 08:32:34;;;;;;;4.30;1.00;;;;;;;22.59;45.36;97865.03;8348284;28;20236;-74
2022/06/07 08:40:59;;;;;;;4.00;1.00;;;;;;;22.77;44.08;97867.69;8347810;28;20236;-74
2022/06/07 08:45:06;;;;;;;4.00;0.80;;;;;;;22.97;42.33;97863.13;8348049;28;20252;-75
2022/06/07 08:49:11;;;;;;;1.83;0.93;;;;;;;23.53;42.11;97859.41;8348068;28;20228;-75
2022/06/07 08:53:17;;;;;;;3.73;0.90;;;;;;;23.93;41.37;97866.03;8347795;28;20232;-75
2022/06/07 08:57:24;;;;;;;1.40;0.87;;;;;;;23.67;41.35;97859.84;8347731;28;20237;-75
2022/06/07 09:01:31;;;;;;;1.40;0.70;;;;;;;24.35;39.31;97853.84;8347475;28;20259;-74
2022/06/07 09:05:34;;;;;;;3.17;0.80;;;;;;;24.36;37.95;97858.16;8347672;28;20429;-75
2022/06/07 09:13:59;;;;;;;3.13;0.70;;;;;;;25.38;35.04;97844.91;8347354;28;20415;-74
2022/06/07 09:18:05;;;;;;;1.57;0.60;;;;;;;25.94;35.68;97840.63;8347418;28;20259;-73
2022/06/07 09:22:16;;;;;;;4.63;0.90;;;;;;;25.66;34.90;97845.41;8347324;28;20221;-73
2022/06/07 09:26:24;;;;;;;3.43;0.70;;;;;;;24.91;36.16;97835.72;8347200;28;20375;-74
2022/06/07 09:30:31;;;;;;;1.83;0.70;;;;;;;24.72;37.82;97826.25;8346662;28;20500;-74
2022/06/07 09:34:34;;;;;;;1.80;0.80;;;;;;;25.54;36.25;97821.88;8347235;28;20580;-74
2022/06/07 09:38:40;;;;;;;2.10;0.60;;;;;;;26.27;35.71;97804.22;8347207;28;20235;-74
2022/06/07 09:42:43;;;;;;;2.80;0.80;;;;;;;26.01;33.68;97808.91;8346834;28;20239;-74
2022/06/07 09:46:50;;;;;;;1.57;0.70;;;;;;;25.91;35.04;97807.31;8352516;28;20232;-74
2022/06/07 09:50:58;;;;;;;3.50;0.97;;;;;;;26.41;35.26;97812.47;8353580;28;20243;-75
2022/06/07 09:55:04;;;;;;;1.47;0.70;;;;;;;26.03;34.56;97810.41;8353182;28;20239;-75
2022/06/07 09:59:33;;;;;;;3.67;0.77;;;;;;;26.37;35.97;97811.13;8353259;28;20539;-73
2022/06/07 10:03:43;;;;;;;1.83;0.90;;;;;;;26.19;33.20;97808.72;8352880;28;20239;-73
2022/06/07 10:07:50;;;;;;;1.47;0.60;;;;;;;26.05;33.54;97808.44;8353049;28;20232;-73
2022/06/07 10:12:02;;;;;;;0.97;0.50;;;;;;;25.76;34.17;97801.00;8352830;28;20330;-73
2022/06/07 10:16:12;;;;;;;2.20;0.90;;;;;;;25.18;35.09;97803.63;8352703;28;20239;-74
2022/06/07 10:20:23;;;;;;;2.20;0.70;;;;;;;25.15;36.39;97798.69;8352604;28;20240;-74
2022/06/07 10:24:35;;;;;;;2.53;0.90;;;;;;;24.96;35.26;97791.06;8352099;28;20231;-74
2022/06/07 10:28:41;;;;;;;2.03;0.90;;;;;;;25.08;35.13;97791.56;8352128;28;20235;-74
2022/06/07 10:32:51;;;;;;;1.67;0.70;;;;;;;25.11;34.89;97796.50;8352093;28;20231;-74
2022/06/07 10:37:00;;;;;;;1.33;0.90;;;;;;;25.12;35.39;97783.09;8352028;28;20236;-74
2022/06/07 10:41:06;;;;;;;4.03;0.70;;;;;;;24.93;35.89;97788.72;8351713;28;20268;-75
2022/06/07 10:45:20;;;;;;;2.43;0.80;;;;;;;24.53;35.05;97792.94;8351927;28;20241;-75
2022/06/07 10:49:26;;;;;;;2.50;0.87;;;;;;;24.22;34.42;97785.50;8351302;28;20231;-74
2022/06/07 10:53:32;;;;;;;0.83;0.50;;;;;;;24.08;35.39;97786.91;8351618;28;20327;-74
2022/06/07 10:57:42;;;;;;;2.43;0.63;;;;;;;23.93;35.96;97784.06;8349832;28;20243;-74
2022/06/07 11:01:48;;;;;;;1.47;0.60;;;;;;;23.89;36.79;97781.84;8351413;28;20239;-74
2022/06/07 11:10:18;;;;;;;1.10;0.50;;;;;;;23.91;38.17;97786.03;8351005;28;20433;-74
2022/06/07 11:14:33;;;;;;;2.30;0.63;;;;;;;23.81;36.65;97775.53;8350806;28;20233;-74
2022/06/07 11:18:36;;;;;;;4.47;0.70;;;;;;;24.13;36.44;97775.88;8345655;28;20235;-75
2022/06/07 11:22:53;;;;;;;3.00;0.70;;;;;;;24.29;36.38;97778.56;8350665;28;20230;-75
2022/06/07 11:27:22;;;;;;;4.00;0.70;;;;;;;24.17;36.31;97783.31;8350957;28;20232;-74
2022/06/07 11:31:42;;;;;;;1.17;0.70;;;;;;;24.29;35.81;97778.56;8350852;28;20323;-75
2022/06/07 11:35:53;;;;;;;1.47;0.67;;;;;;;24.32;36.41;97777.44;8350294;28;20315;-82
2022/06/07 11:39:57;;;;;;;1.97;0.80;;;;;;;24.56;35.21;97774.91;8350225;28;20242;-75
2022/06/07 11:44:05;;;;;;;2.13;0.77;;;;;;;24.07;35.00;97774.69;8344490;28;20232;-75
2022/06/07 11:48:13;;;;;;;1.00;0.60;;;;;;;23.89;35.26;97777.38;8349846;28;20232;-75
2022/06/07 11:52:24;;;;;;;3.30;0.80;;;;;;;23.66;35.42;97779.69;8349721;28;20238;-75
2022/06/07 11:56:40;;;;;;;1.30;0.70;;;;;;;24.05;35.90;97774.03;8349109;28;20220;-74
2022/06/07 12:00:50;;;;;;;2.47;0.73;;;;;;;25.10;34.88;97765.72;8349500;28;20231;-75
2022/06/07 12:05:18;;;;;;;5.50;0.70;;;;;;;24.48;35.85;97758.94;8349439;28;20231;-75
2022/06/07 12:09:21;;;;;;;1.43;0.70;;;;;;;24.22;35.13;97758.19;8348669;28;20229;-74
2022/06/07 12:17:54;;;;;;;3.73;0.80;;;;;;;24.89;35.71;97748.47;8348718;28;20526;-74
2022/06/07 12:22:00;;;;;;;5.17;0.80;;;;;;;24.34;36.03;97735.78;8348800;28;20433;-75
2022/06/07 12:26:06;;;;;;;4.70;0.80;;;;;;;24.22;36.00;97743.19;8348394;28;20246;-73
2022/06/07 12:30:22;;;;;;;3.23;0.70;;;;;;;24.13;35.39;97739.66;8348512;28;20238;-74
2022/06/07 12:34:28;;;;;;;1.43;0.73;;;;;;;24.21;36.19;97736.22;8348026;28;20237;-73
2022/06/07 12:38:31;;;;;;;1.37;0.60;;;;;;;24.09;35.56;97734.88;8348355;28;20403;-74
2022/06/07 12:42:48;;;;;;;2.13;0.73;;;;;;;23.99;35.51;97738.47;8347567;28;20301;-74
2022/06/07 12:46:50;;;;;;;1.07;0.60;;;;;;;24.04;35.08;97737.16;8347875;28;20227;-74
2022/06/07 12:50:55;;;;;;;1.87;0.80;;;;;;;23.74;36.41;97731.34;8348092;28;20239;-76
2022/06/07 12:55:08;;;;;;;1.10;0.70;;;;;;;24.05;36.10;97733.53;8347907;28;20297;-75
2022/06/07 12:59:17;;;;;;;2.23;0.87;;;;;;;24.22;36.12;97719.38;8347701;28;20244;-74
2022/06/07 13:03:28;;;;;;;1.10;0.70;;;;;;;24.32;36.48;97730.63;8347795;28;20273;-75
2022/06/07 13:07:34;;;;;;;3.30;0.80;;;;;;;24.14;35.72;97732.53;8347362;28;20297;-75
2022/06/07 13:11:45;;;;;;;5.07;0.97;;;;;;;24.05;35.65;97729.06;8347440;28;20263;-76
2022/06/07 13:15:55;;;;;;;0.90;0.70;;;;;;;24.36;36.08;97741.72;8347122;28;20241;-76
2022/06/07 13:19:59;;;;;;;1.80;0.83;;;;;;;24.35;36.67;97740.91;8346721;28;20232;-76
2022/06/07 13:24:04;;;;;;;2.20;0.80;;;;;;;24.66;36.38;97724.47;8346341;28;20236;-77
2022/06/07 13:28:14;;;;;;;2.13;0.70;;;;;;;25.14;37.73;97720.19;8316008;28;20224;-76
2022/06/07 13:32:22;;;;;;;4.23;0.93;;;;;;;25.16;36.54;97712.88;8313835;28;20242;-75
2022/06/07 13:36:36;;;;;;;2.07;0.70;;;;;;;24.90;35.91;97709.56;8311343;28;20224;-74
2022/06/07 13:40:40;;;;;;;3.03;0.80;;;;;;;24.83;35.57;97705.94;8311126;28;20546;-74
2022/06/07 13:44:46;;;;;;;1.27;0.70;;;;;;;24.94;35.53;97692.34;8313510;28;20236;-75
2022/06/07 13:53:24;;;;;;;2.90;1.00;;;;;;;24.77;33.07;97702.97;8313349;28;20238;-75
2022/06/07 13:57:29;;;;;;;2.40;0.73;;;;;;;25.28;32.67;97689.53;8311703;28;20217;-74
2022/06/07 14:01:38;;;;;;;2.37;0.70;;;;;;;25.92;32.23;97694.06;8313580;28;20223;-74
2022/06/07 14:05:41;;;;;;;1.90;0.70;;;;;;;25.78;32.57;97687.63;8311042;28;20232;-75
2022/06/07 14:09:44;;;;;;;3.37;0.90;;;;;;;25.94;30.22;97690.22;8312533;28;20546;-75
2022/06/07 14:13:48;;;;;;;1.90;0.73;;;;;;;26.13;30.80;97694.28;8313583;28;20240;-75
2022/06/07 14:17:52;;;;;;;3.27;0.80;;;;;;;26.51;32.23;97686.44;8313868;28;20235;-75
2022/06/07 14:21:55;;;;;;;1.10;0.50;;;;;;;25.96;30.52;97678.63;8313789;28;20238;-76
2022/06/07 14:25:58;;;;;;;1.40;0.60;;;;;;;25.69;31.10;97686.81;8313719;28;20237;-75
2022/06/07 14:30:02;;;;;;;2.70;0.80;;;;;;;25.67;32.60;97685.34;8314584;28;20243;-75
2022/06/07 14:34:11;;;;;;;1.10;0.60;;;;;;;26.27;32.09;97684.78;8319311;28;20235;-76
2022/06/07 14:38:15;;;;;;;2.70;0.90;;;;;;;26.12;31.83;97678.53;8319338;28;20231;-76
2022/06/07 14:42:18;;;;;;;2.67;0.80;;;;;;;25.91;31.82;97682.63;8326660;28;20239;-76
2022/06/07 14:46:25;;;;;;;2.97;0.90;;;;;;;26.09;32.54;97677.06;8351906;28;20236;-76
2022/06/07 14:50:29;;;;;;;5.03;0.83;;;;;;;25.86;31.16;97671.66;8351515;28;20237;-75
2022/06/07 14:54:33;;;;;;;1.87;0.67;;;;;;;25.92;32.27;97667.53;8351407;28;20244;-76
2022/06/07 14:58:36;;;;;;;3.00;0.80;;;;;;;25.77;31.60;97672.69;8351528;28;20517;-75
2022/06/07 15:02:42;;;;;;;3.00;0.83;;;;;;;25.85;31.38;97670.00;8351458;28;20235;-75
2022/06/07 15:06:45;;;;;;;2.43;0.80;;;;;;;25.86;31.42;97668.19;8351352;28;20244;-75
2022/06/07 15:10:48;;;;;;;2.97;0.70;;;;;;;25.76;32.57;97663.09;8351226;28;20532;-76
2022/06/07 15:14:51;;;;;;;2.60;0.70;;;;;;;25.52;29.89;97670.13;8351022;28;20237;-76
2022/06/07 15:18:56;;;;;;;1.90;0.57;;;;;;;25.54;30.92;97669.97;8350805;28;20233;-76
2022/06/07 15:23:02;;;;;;;2.43;0.63;;;;;;;25.56;31.87;97667.97;8350807;28;20297;-77
2022/06/07 15:27:06;;;;;;;2.50;0.80;;;;;;;25.68;31.89;97665.75;8350581;28;20247;-76
2022/06/07 15:31:21;;;;;;;2.30;0.77;;;;;;;25.71;32.16;97660.94;8350409;28;20235;-76
2022/06/07 15:35:28;;;;;;;3.17;0.77;;;;;;;25.71;32.93;97653.00;8338647;28;20238;-75
2022/06/07 15:39:32;;;;;;;1.53;0.70;;;;;;;25.85;32.85;97654.09;8317047;28;20242;-76
2022/06/07 15:43:51;;;;;;;2.80;0.60;;;;;;;25.99;32.62;97643.78;8328414;28;20242;-76
2022/06/07 15:48:07;;;;;;;1.50;0.67;;;;;;;25.75;31.72;97640.22;8350030;28;20240;-76
2022/06/07 15:52:12;;;;;;;8.23;1.03;;;;;;;25.80;32.56;97643.19;8350006;28;20229;-76
2022/06/07 15:56:15;;;;;;;3.50;0.60;;;;;;;25.69;31.88;97641.75;8349643;28;20247;-76
2022/06/07 16:00:20;;;;;;;1.67;0.60;;;;;;;25.44;31.05;97630.41;8349733;28;20412;-74
2022/06/07 16:04:23;;;;;;;0.83;0.60;;;;;;;25.34;31.70;97641.19;8348959;28;20227;-74
2022/06/07 16:08:27;;;;;;;2.30;0.83;;;;;;;25.46;31.95;97635.53;8349349;28;20535;-73
2022/06/07 16:12:30;;;;;;;1.13;0.60;;;;;;;25.34;31.60;97635.03;8348854;28;20239;-75
2022/06/07 16:16:35;;;;;;;3.77;0.87;;;;;;;25.38;32.10;97636.38;8324204;28;20244;-74
2022/06/07 16:20:38;;;;;;;1.60;0.70;;;;;;;25.18;32.07;97634.06;8315678;28;20231;-74
2022/06/07 16:24:43;;;;;;;7.60;1.60;;;;;;;25.22;31.72;97631.91;8323961;28;20238;-75
2022/06/07 16:33:21;;;;;;;1.33;0.50;;;;;;;25.12;31.90;97640.03;8315799;28;20231;-75
2022/06/07 16:37:24;;;;;;;0.97;0.53;;;;;;;24.98;31.50;97643.38;8323493;28;20235;-75
2022/06/07 16:41:29;;;;;;;2.33;0.93;;;;;;;24.79;32.18;97647.19;8315342;28;20231;-74
2022/06/07 16:45:32;;;;;;;1.20;0.60;;;;;;;24.50;33.34;97652.94;8315379;28;20241;-75
2022/06/07 16:49:36;;;;;;;1.53;0.67;;;;;;;24.47;33.78;97648.81;8315306;28;20239;-74
2022/06/07 16:53:39;;;;;;;1.30;0.60;;;;;;;24.29;33.56;97645.44;8315297;28;20255;-74
2022/06/07 16:57:43;;;;;;;1.97;0.60;;;;;;;24.07;34.32;97649.56;8315126;28;20551;-74
2022/06/07 17:01:47;;;;;;;3.60;0.70;;;;;;;24.06;35.16;97648.69;8315105;28;20239;-74
2022/06/07 17:05:50;;;;;;;1.33;0.53;;;;;;;23.92;35.07;97646.69;8318570;28;20226;-73
2022/06/07 17:09:54;;;;;;;1.63;0.70;;;;;;;24.02;35.43;97650.03;8347748;28;20238;-74
2022/06/07 17:13:59;;;;;;;1.73;0.80;;;;;;;23.95;35.86;97649.00;8344178;28;20331;-75
2022/06/07 17:18:08;;;;;;;1.03;0.70;;;;;;;23.93;36.01;97659.75;8345421;28;20241;-75
2022/06/07 17:22:11;;;;;;;1.53;0.70;;;;;;;23.71;36.00;97661.13;8342179;28;20236;-75
2022/06/07 17:26:16;;;;;;;0.73;0.60;;;;;;;23.63;36.74;97658.44;8347221;28;20233;-75
2022/06/07 17:30:21;;;;;;;0.83;0.57;;;;;;;23.55;37.46;97661.03;8347342;28;20241;-77
2022/06/07 17:34:24;;;;;;;1.40;0.63;;;;;;;23.52;36.84;97664.00;8338884;28;20224;-79
2022/06/07 17:38:27;;;;;;;2.20;0.77;;;;;;;23.42;37.58;97659.66;8347310;28;20424;-76
2022/06/07 17:42:30;;;;;;;0.70;0.60;;;;;;;23.45;37.34;97658.50;8347075;28;20304;-75
2022/06/07 17:46:34;;;;;;;3.03;0.83;;;;;;;23.33;37.52;97665.88;8346993;28;20234;-74
2022/06/07 17:50:39;;;;;;;1.23;0.60;;;;;;;23.34;37.37;97656.13;8346990;28;20235;-74
2022/06/07 17:54:44;;;;;;;2.70;0.60;;;;;;;23.35;37.70;97655.97;8346847;28;20233;-73
2022/06/07 17:58:46;;;;;;;1.77;0.67;;;;;;;23.29;38.20;97658.44;8346857;28;20236;-79
2022/06/07 18:02:52;;;;;;;1.27;0.70;;;;;;;23.29;38.21;97656.59;8342743;28;20234;-77
2022/06/07 18:06:55;;;;;;;2.60;0.80;;;;;;;23.26;38.51;97664.00;8318365;28;20233;-77
2022/06/07 18:10:58;;;;;;;2.13;0.80;;;;;;;23.22;38.75;97666.13;8320218;28;20263;-78
2022/06/07 18:15:01;;;;;;;3.43;1.00;;;;;;;23.19;40.31;97666.47;8320051;28;20443;-78
2022/06/07 18:19:06;;;;;;;1.33;0.53;;;;;;;23.19;39.36;97666.47;8319954;28;20233;-78
2022/06/07 18:23:09;;;;;;;1.80;0.67;;;;;;;23.14;39.25;97671.38;8319642;28;20228;-76
2022/06/07 18:27:12;;;;;;;2.03;0.80;;;;;;;23.15;38.91;97665.94;8319789;28;20230;-77
2022/06/07 18:31:17;;;;;;;0.93;0.60;;;;;;;23.09;39.15;97673.63;8319714;28;20295;-76
2022/06/07 18:35:24;;;;;;;2.80;0.83;;;;;;;23.02;39.78;97665.47;8319306;28;20307;-76
2022/06/07 18:39:27;;;;;;;4.50;0.97;;;;;;;22.97;39.24;97671.22;8318968;28;20546;-76
2022/06/07 18:43:30;;;;;;;1.80;0.80;;;;;;;22.92;40.26;97678.75;8319068;28;20244;-76
2022/06/07 18:47:35;;;;;;;1.47;0.70;;;;;;;22.83;40.30;97667.31;8319143;28;20410;-76
2022/06/07 18:51:41;;;;;;;1.53;0.80;;;;;;;22.75;41.45;97669.91;8319000;28;20466;-75
2022/06/07 18:55:44;;;;;;;2.37;0.80;;;;;;;22.64;41.54;97675.41;8318705;28;20244;-77
2022/06/07 18:59:50;;;;;;;1.63;0.80;;;;;;;22.63;41.07;97668.44;8318855;28;20570;-77
2022/06/07 19:03:54;;;;;;;4.93;0.97;;;;;;;22.54;42.30;97675.47;8331095;28;20426;-78
2022/06/07 19:07:59;;;;;;;3.47;0.93;;;;;;;22.42;42.56;97679.31;8351217;28;20239;-75
2022/06/07 19:12:03;;;;;;;12.57;2.57;;;;;;;22.41;45.94;97682.94;8351047;28;20235;-77
2022/06/07 19:16:07;;;;;;;5.30;1.27;;;;;;;22.38;44.45;97672.69;8343319;28;20247;-77
2022/06/07 19:20:11;;;;;;;4.60;1.13;;;;;;;22.33;44.22;97685.47;8350478;28;20263;-79
2022/06/07 19:24:20;;;;;;;1.70;1.10;;;;;;;22.30;44.30;97689.25;8350355;28;20456;-77
2022/06/07 19:28:24;;;;;;;4.60;0.90;;;;;;;22.23;44.64;97682.88;8317225;28;20236;-76
2022/06/07 19:32:27;;;;;;;2.30;1.00;;;;;;;22.13;45.49;97687.38;8317647;28;20551;-77
2022/06/07 19:36:31;;;;;;;1.53;0.90;;;;;;;22.11;45.25;97695.44;8317322;28;20235;-76
2022/06/07 19:40:35;;;;;;;3.07;1.20;;;;;;;22.05;45.97;97699.50;8317086;28;20332;-76
2022/06/07 19:44:44;;;;;;;1.93;1.10;;;;;;;22.01;45.19;97700.78;8316648;28;20244;-76
2022/06/07 19:48:47;;;;;;;2.37;1.00;;;;;;;21.97;45.91;97698.56;8316388;28;20295;-76
2022/06/07 19:52:51;;;;;;;2.20;1.00;;;;;;;21.92;46.92;97700.81;8316448;28;20244;-76